Albany, New York
Traffic Map
Current Weather Conditions
Albany, New York
Few Clouds
Few Clouds
26°
Feels Like: 28°
Wind Chill: 26° Ceiling: Unl
Heat Index: 28° Visibility: 10mi
Dew Point: 21° Wind: 7mph
Humidity: 74% Direction: 180° (S)
Pressure: 29.98in Gusts: 0mph
Raw Report DataKALB 230251Z 18006KT 10SM FEW065 26/21 A2998 RMK AO2 SLP149 T02610211 58004
Traffic Incident Summary
Active as of:
Severity:
Category:
InformationThere was an issue retrieving the traffic information for this location. Please try a different location or try again shortly.
Advertisements
Track Severe Weather on mobile